Terminal Aerodrome Forecast
Issued by NWS Denver/Boulder, CO

Home | Current Version | Previous Version | Text Only | Print | Product List | Glossary On
Versions: 1 2 3 4 5 6 7 8 9 10 11 12 13 14 15 16 17 18 19 20 21 22 23 24 25 26 27 28 29 30 31 32 33 34 35 36 37 38 39 40 41 42 43 44 45 46 47 48 49 50
000
FTUS45 KBOU 041510 AAA
TAFDEN
TAF AMD
KDEN 041510Z 0415/0518 09006KT P6SM VCSH BKN040 OVC080
     FM041700 08007KT P6SM SCT020 OVC030
     FM042000 10007KT P6SM VCTS BKN025 BKN040CB
      TEMPO 0422/0502 3SM -TSRA BKN025CB
     FM050200 11008KT 5SM -RA BR BKN020 OVC040
     FM050600 11009KT 2SM -SHRA BR BKN010 OVC020
     FM051600 08007KT 3SM -SHRA BKN018 OVC025=

USA.gov is the U.S. government's official web portal to all federal, state and local government web resources and services.